KADH

Details ICAO KADH
Name ADA MUNI
Region United States
Timezone America/Chicago (UTC-5.0)
Plans Departing 7
Arriving 3
Stats Elevation 1,016 ft / 310 m (AMSL)
Location 34.804135° -96.670930°
Runways 2
Magnetic Variation 3.146° E
Sunrise 2018-05-24 11:19:13 UTC / 2018-05-24 06:19:13 Local
Sunset 2018-05-25 01:30:45 UTC / 2018-05-24 20:30:45 Local
Advertisement - Login to hide

Runways

ID Width Length Bearing (true) Bearing (mag) Surface Threshold Offset Overrun Length
13 50 ft / 15 m 3,104 ft / 946 m 135.24° 132.09° Asphalt 0 ft / 0 m 0 ft / 0 m
17 100 ft / 30 m 6,219 ft / 1,896 m 179.99° 176.84° Asphalt 0 ft / 0 m 0 ft / 0 m
31 50 ft / 15 m 3,104 ft / 946 m 315.24° 312.09° Asphalt 0 ft / 0 m 0 ft / 0 m
35 100 ft / 30 m 6,219 ft / 1,896 m 359.99° 356.84° Asphalt 100 ft / 30 m 0 ft / 0 m

Map

Weather


0- 5 10 15 20 25 30 35+ Temperature / ° C

Clouds and Precipitation
Forecast for 2018-05-24 12:00 UTC. Updated 3 hours ago

Ground ~20,000 ft ~40,000 ft Winds

METAR

KADH 241335Z AUTO 16004KT 10SM CLR 22/20 A3011 RMK AO2

TAF

Not found

Frequencies

Recorded 118.72 MHz AWOS 3
Unicom 122.80 MHz CTAF/UNICOM
Warning: Do not use this data for real-world aviation or navigation. No guarantee of current accuracy is given.